sensor_id;sensor_type;location;lat;lon;timestamp;pressure;altitude;pressure_sealevel;temperature;humidity
70254;BME280;57649;42.968;1.608;2023-02-21T00:01:54;97661.56;;;7.07;72.45
70254;BME280;57649;42.968;1.608;2023-02-21T00:04:38;97659.31;;;7.12;72.17
70254;BME280;57649;42.968;1.608;2023-02-21T00:07:22;97660.13;;;7.03;72.69
70254;BME280;57649;42.968;1.608;2023-02-21T00:10:08;97649.34;;;6.95;73.50
70254;BME280;57649;42.968;1.608;2023-02-21T00:12:53;97635.09;;;6.96;73.43
70254;BME280;57649;42.968;1.608;2023-02-21T00:15:36;97640.25;;;7.17;71.89
70254;BME280;57649;42.968;1.608;2023-02-21T00:18:20;97638.16;;;7.11;72.49
70254;BME280;57649;42.968;1.608;2023-02-21T00:21:05;97632.41;;;7.16;71.90
70254;BME280;57649;42.968;1.608;2023-02-21T00:23:49;97634.50;;;7.22;71.53
70254;BME280;57649;42.968;1.608;2023-02-21T00:26:33;97624.53;;;7.14;71.06
70254;BME280;57649;42.968;1.608;2023-02-21T00:29:17;97632.13;;;6.99;72.05
70254;BME280;57649;42.968;1.608;2023-02-21T00:32:01;97625.25;;;6.97;72.56
70254;BME280;57649;42.968;1.608;2023-02-21T00:34:45;97620.06;;;6.95;72.35
70254;BME280;57649;42.968;1.608;2023-02-21T00:37:29;97617.56;;;6.93;72.27
70254;BME280;57649;42.968;1.608;2023-02-21T00:40:14;97604.81;;;6.97;71.22
70254;BME280;57649;42.968;1.608;2023-02-21T00:42:59;97605.78;;;7.06;70.55
70254;BME280;57649;42.968;1.608;2023-02-21T00:45:43;97613.06;;;7.13;70.01
70254;BME280;57649;42.968;1.608;2023-02-21T00:48:28;97605.91;;;7.24;69.68
70254;BME280;57649;42.968;1.608;2023-02-21T00:51:12;97595.81;;;7.18;70.03
70254;BME280;57649;42.968;1.608;2023-02-21T00:53:56;97602.00;;;7.18;70.37
70254;BME280;57649;42.968;1.608;2023-02-21T00:56:40;97603.00;;;7.07;70.56
70254;BME280;57649;42.968;1.608;2023-02-21T00:59:24;97591.91;;;7.02;71.13
70254;BME280;57649;42.968;1.608;2023-02-21T01:02:08;97593.75;;;7.02;71.28
70254;BME280;57649;42.968;1.608;2023-02-21T01:04:53;97588.69;;;7.08;70.35
70254;BME280;57649;42.968;1.608;2023-02-21T01:07:37;97591.06;;;7.11;70.47
70254;BME280;57649;42.968;1.608;2023-02-21T01:10:21;97584.91;;;6.91;71.64
70254;BME280;57649;42.968;1.608;2023-02-21T01:13:05;97590.94;;;6.84;71.31
70254;BME280;57649;42.968;1.608;2023-02-21T01:15:49;97576.09;;;6.81;71.86
70254;BME280;57649;42.968;1.608;2023-02-21T01:18:33;97587.28;;;6.75;72.13
70254;BME280;57649;42.968;1.608;2023-02-21T01:21:18;97582.28;;;6.82;71.38
70254;BME280;57649;42.968;1.608;2023-02-21T01:24:03;97577.63;;;6.93;70.53
70254;BME280;57649;42.968;1.608;2023-02-21T01:26:48;97567.97;;;6.83;70.36
70254;BME280;57649;42.968;1.608;2023-02-21T01:29:32;97567.81;;;7.04;68.80
70254;BME280;57649;42.968;1.608;2023-02-21T01:32:16;97572.44;;;7.11;69.08
70254;BME280;57649;42.968;1.608;2023-02-21T01:35:00;97566.81;;;7.05;68.96
70254;BME280;57649;42.968;1.608;2023-02-21T01:37:44;97567.13;;;6.92;69.64
70254;BME280;57649;42.968;1.608;2023-02-21T01:40:28;97563.19;;;6.86;70.41
70254;BME280;57649;42.968;1.608;2023-02-21T01:43:23;97567.41;;;6.79;70.90
70254;BME280;57649;42.968;1.608;2023-02-21T01:46:13;97558.16;;;6.73;71.39
70254;BME280;57649;42.968;1.608;2023-02-21T01:49:01;97555.38;;;6.65;71.38
70254;BME280;57649;42.968;1.608;2023-02-21T01:51:46;97558.47;;;6.70;71.49
70254;BME280;57649;42.968;1.608;2023-02-21T01:54:35;97549.91;;;6.57;72.02
70254;BME280;57649;42.968;1.608;2023-02-21T01:57:19;97555.38;;;6.65;71.31
70254;BME280;57649;42.968;1.608;2023-02-21T02:00:07;97553.13;;;6.61;72.18
70254;BME280;57649;42.968;1.608;2023-02-21T02:02:53;97551.03;;;6.64;72.31
70254;BME280;57649;42.968;1.608;2023-02-21T02:05:40;97553.13;;;6.51;73.26
70254;BME280;57649;42.968;1.608;2023-02-21T02:08:28;97547.94;;;6.49;72.38
70254;BME280;57649;42.968;1.608;2023-02-21T02:25:31;97532.41;;;6.64;71.53
70254;BME280;57649;42.968;1.608;2023-02-21T02:28:07;97531.00;;;6.60;71.20
70254;BME280;57649;42.968;1.608;2023-02-21T02:30:53;97535.34;;;6.61;71.10
70254;BME280;57649;42.968;1.608;2023-02-21T02:36:20;97519.53;;;6.50;71.51
70254;BME280;57649;42.968;1.608;2023-02-21T02:39:00;97513.94;;;6.53;71.62
70254;BME280;57649;42.968;1.608;2023-02-21T02:44:23;97513.22;;;6.80;70.14
70254;BME280;57649;42.968;1.608;2023-02-21T02:46:51;97506.75;;;6.83;69.71
70254;BME280;57649;42.968;1.608;2023-02-21T02:49:23;97506.34;;;6.78;70.57
70254;BME280;57649;42.968;1.608;2023-02-21T02:51:50;97493.88;;;6.88;69.62
70254;BME280;57649;42.968;1.608;2023-02-21T02:54:16;97501.03;;;6.78;69.75
70254;BME280;57649;42.968;1.608;2023-02-21T02:56:42;97497.53;;;6.77;69.96
70254;BME280;57649;42.968;1.608;2023-02-21T02:59:21;97491.41;;;6.67;70.83
70254;BME280;57649;42.968;1.608;2023-02-21T03:12:47;97482.84;;;6.63;69.94
70254;BME280;57649;42.968;1.608;2023-02-21T03:15:26;97483.56;;;6.46;71.61
70254;BME280;57649;42.968;1.608;2023-02-21T03:17:59;97487.06;;;6.36;71.67
70254;BME280;57649;42.968;1.608;2023-02-21T03:20:32;97482.44;;;6.39;71.63
70254;BME280;57649;42.968;1.608;2023-02-21T03:22:58;97472.63;;;6.39;71.34
70254;BME280;57649;42.968;1.608;2023-02-21T03:25:27;97470.94;;;6.48;71.22
70254;BME280;57649;42.968;1.608;2023-02-21T03:27:54;97469.28;;;6.47;71.50
70254;BME280;57649;42.968;1.608;2023-02-21T03:30:20;97470.94;;;6.48;71.18
70254;BME280;57649;42.968;1.608;2023-02-21T03:32:48;97465.06;;;6.44;70.84
70254;BME280;57649;42.968;1.608;2023-02-21T03:35:16;97475.56;;;6.46;71.21
70254;BME280;57649;42.968;1.608;2023-02-21T03:37:48;97474.88;;;6.44;71.66
70254;BME280;57649;42.968;1.608;2023-02-21T03:40:27;97471.25;;;6.45;70.90
70254;BME280;57649;42.968;1.608;2023-02-21T03:42:55;97465.06;;;6.44;71.37
70254;BME280;57649;42.968;1.608;2023-02-21T03:45:21;97464.34;;;6.52;70.87
70254;BME280;57649;42.968;1.608;2023-02-21T03:47:47;97462.97;;;6.48;70.50
70254;BME280;57649;42.968;1.608;2023-02-21T03:50:13;97460.75;;;6.43;71.12
70254;BME280;57649;42.968;1.608;2023-02-21T03:52:39;97460.31;;;6.38;71.41
70254;BME280;57649;42.968;1.608;2023-02-21T03:55:05;97463.13;;;6.36;72.24
70254;BME280;57649;42.968;1.608;2023-02-21T03:57:31;97464.09;;;6.26;72.95
70254;BME280;57649;42.968;1.608;2023-02-21T03:59:57;97462.81;;;6.30;71.88
70254;BME280;57649;42.968;1.608;2023-02-21T04:02:22;97456.81;;;6.47;71.00
70254;BME280;57649;42.968;1.608;2023-02-21T04:04:48;97447.59;;;6.42;70.65
70254;BME280;57649;42.968;1.608;2023-02-21T04:07:15;97456.69;;;6.49;70.86
70254;BME280;57649;42.968;1.608;2023-02-21T04:09:41;97452.75;;;6.53;71.06
70254;BME280;57649;42.968;1.608;2023-02-21T04:12:07;97450.63;;;6.66;69.64
70254;BME280;57649;42.968;1.608;2023-02-21T04:14:32;97451.22;;;6.50;70.58
70254;BME280;57649;42.968;1.608;2023-02-21T04:16:58;97441.28;;;6.52;71.25
70254;BME280;57649;42.968;1.608;2023-02-21T04:19:23;97442.53;;;6.58;70.61
70254;BME280;57649;42.968;1.608;2023-02-21T04:21:49;97444.34;;;6.48;70.64
70254;BME280;57649;42.968;1.608;2023-02-21T04:24:15;97446.91;;;6.40;70.85
70254;BME280;57649;42.968;1.608;2023-02-21T04:26:40;97435.56;;;6.38;71.54
70254;BME280;57649;42.968;1.608;2023-02-21T04:29:06;97435.28;;;6.31;71.55
70254;BME280;57649;42.968;1.608;2023-02-21T04:31:31;97423.38;;;6.45;71.31
70254;BME280;57649;42.968;1.608;2023-02-21T04:33:58;97429.38;;;6.37;71.34
70254;BME280;57649;42.968;1.608;2023-02-21T04:36:24;97432.19;;;6.35;70.86
70254;BME280;57649;42.968;1.608;2023-02-21T04:38:49;97430.78;;;6.31;71.78
70254;BME280;57649;42.968;1.608;2023-02-21T04:41:15;97425.22;;;6.25;72.00
70254;BME280;57649;42.968;1.608;2023-02-21T04:43:42;97417.66;;;6.20;72.83
70254;BME280;57649;42.968;1.608;2023-02-21T04:46:08;97427.16;;;6.32;71.32
70254;BME280;57649;42.968;1.608;2023-02-21T04:48:34;97432.19;;;6.45;70.51
70254;BME280;57649;42.968;1.608;2023-02-21T04:50:59;97435.00;;;6.44;71.24
70254;BME280;57649;42.968;1.608;2023-02-21T04:53:25;97429.13;;;6.30;71.05
70254;BME280;57649;42.968;1.608;2023-02-21T04:55:50;97438.06;;;6.29;72.19
70254;BME280;57649;42.968;1.608;2023-02-21T04:58:16;97425.91;;;6.27;72.14
70254;BME280;57649;42.968;1.608;2023-02-21T05:00:41;97423.50;;;6.33;72.19
70254;BME280;57649;42.968;1.608;2023-02-21T05:03:07;97431.63;;;6.42;71.44
70254;BME280;57649;42.968;1.608;2023-02-21T05:05:32;97423.22;;;6.56;70.03
70254;BME280;57649;42.968;1.608;2023-02-21T05:07:58;97421.78;;;6.71;69.70
70254;BME280;57649;42.968;1.608;2023-02-21T05:10:23;97413.66;;;6.73;69.42
70254;BME280;57649;42.968;1.608;2023-02-21T05:12:49;97413.13;;;6.69;69.65
70254;BME280;57649;42.968;1.608;2023-02-21T05:15:15;97412.41;;;6.67;69.60
70254;BME280;57649;42.968;1.608;2023-02-21T05:17:41;97415.78;;;6.69;70.06
70254;BME280;57649;42.968;1.608;2023-02-21T05:20:06;97413.41;;;6.57;70.52
70254;BME280;57649;42.968;1.608;2023-02-21T05:22:37;97409.50;;;6.51;71.64
70254;BME280;57649;42.968;1.608;2023-02-21T05:25:05;97415.66;;;6.51;70.89
70254;BME280;57649;42.968;1.608;2023-02-21T05:27:31;97412.75;;;6.45;71.06
70254;BME280;57649;42.968;1.608;2023-02-21T05:29:57;97418.75;;;6.47;71.25
70254;BME280;57649;42.968;1.608;2023-02-21T05:32:22;97410.47;;;6.50;71.13
70254;BME280;57649;42.968;1.608;2023-02-21T05:34:48;97410.34;;;6.51;70.92
70254;BME280;57649;42.968;1.608;2023-02-21T05:37:14;97414.25;;;6.67;70.67
70254;BME280;57649;42.968;1.608;2023-02-21T05:39:40;97406.97;;;6.69;70.16
70254;BME280;57649;42.968;1.608;2023-02-21T05:42:05;97410.63;;;6.58;70.89
70254;BME280;57649;42.968;1.608;2023-02-21T05:44:32;97411.31;;;6.60;70.09
70254;BME280;57649;42.968;1.608;2023-02-21T05:46:57;97414.66;;;6.62;70.38
70254;BME280;57649;42.968;1.608;2023-02-21T05:49:23;97414.09;;;6.68;69.70
70254;BME280;57649;42.968;1.608;2023-02-21T05:51:48;97414.25;;;6.67;70.03
70254;BME280;57649;42.968;1.608;2023-02-21T05:54:18;97408.38;;;6.63;70.53
70254;BME280;57649;42.968;1.608;2023-02-21T05:56:46;97411.41;;;6.68;69.81
70254;BME280;57649;42.968;1.608;2023-02-21T05:59:13;97408.94;;;6.67;70.41
70254;BME280;57649;42.968;1.608;2023-02-21T06:01:39;97409.47;;;6.70;70.89
70254;BME280;57649;42.968;1.608;2023-02-21T06:04:05;97405.00;;;6.71;70.99
70254;BME280;57649;42.968;1.608;2023-02-21T06:06:32;97411.44;;;6.59;70.87
70254;BME280;57649;42.968;1.608;2023-02-21T06:08:58;97405.03;;;6.51;70.59
70254;BME280;57649;42.968;1.608;2023-02-21T06:11:27;97406.16;;;6.29;75.52
70254;BME280;57649;42.968;1.608;2023-02-21T06:13:55;97399.19;;;5.99;78.76
70254;BME280;57649;42.968;1.608;2023-02-21T06:16:21;97409.47;;;5.73;79.45
70254;BME280;57649;42.968;1.608;2023-02-21T06:18:52;97394.84;;;5.38;82.29
70254;BME280;57649;42.968;1.608;2023-02-21T06:21:18;97405.47;;;5.38;79.77
70254;BME280;57649;42.968;1.608;2023-02-21T06:23:44;97389.69;;;5.36;78.63
70254;BME280;57649;42.968;1.608;2023-02-21T06:26:10;97394.72;;;5.39;78.60
70254;BME280;57649;42.968;1.608;2023-02-21T06:28:35;97393.47;;;5.44;79.47
70254;BME280;57649;42.968;1.608;2023-02-21T06:31:03;97388.78;;;5.57;78.78
70254;BME280;57649;42.968;1.608;2023-02-21T06:33:28;97383.63;;;5.85;77.08
70254;BME280;57649;42.968;1.608;2023-02-21T06:35:54;97392.84;;;5.81;76.25
70254;BME280;57649;42.968;1.608;2023-02-21T06:38:20;97388.50;;;5.89;76.87
70254;BME280;57649;42.968;1.608;2023-02-21T06:40:45;97387.84;;;6.07;76.20
70254;BME280;57649;42.968;1.608;2023-02-21T06:43:11;97397.72;;;5.66;79.78
70254;BME280;57649;42.968;1.608;2023-02-21T06:45:36;97398.22;;;5.40;81.12
70254;BME280;57649;42.968;1.608;2023-02-21T06:48:02;97395.66;;;5.19;81.42
70254;BME280;57649;42.968;1.608;2023-02-21T06:50:28;97395.41;;;5.32;82.00
70254;BME280;57649;42.968;1.608;2023-02-21T06:52:53;97391.63;;;5.25;82.48
70254;BME280;57649;42.968;1.608;2023-02-21T06:55:20;97398.19;;;5.20;83.03
70254;BME280;57649;42.968;1.608;2023-02-21T06:57:45;97401.78;;;5.19;84.59
70254;BME280;57649;42.968;1.608;2023-02-21T07:00:11;97399.25;;;5.08;86.05
70254;BME280;57649;42.968;1.608;2023-02-21T07:02:37;97398.34;;;4.98;87.27
70254;BME280;57649;42.968;1.608;2023-02-21T07:05:04;97393.69;;;4.80;89.04
70254;BME280;57649;42.968;1.608;2023-02-21T07:07:30;97397.38;;;4.68;90.30
70254;BME280;57649;42.968;1.608;2023-02-21T07:09:55;97395.88;;;4.75;90.67
70254;BME280;57649;42.968;1.608;2023-02-21T07:12:21;97399.91;;;4.70;90.65
70254;BME280;57649;42.968;1.608;2023-02-21T07:14:46;97406.97;;;4.90;90.61
70254;BME280;57649;42.968;1.608;2023-02-21T07:17:11;97416.22;;;4.96;91.40
70254;BME280;57649;42.968;1.608;2023-02-21T07:19:37;97407.53;;;5.15;91.61
70254;BME280;57649;42.968;1.608;2023-02-21T07:22:02;97411.25;;;5.12;90.07
70254;BME280;57649;42.968;1.608;2023-02-21T07:24:28;97413.56;;;5.27;91.02
70254;BME280;57649;42.968;1.608;2023-02-21T07:26:53;97412.59;;;5.28;90.92
70254;BME280;57649;42.968;1.608;2023-02-21T07:29:19;97408.69;;;5.42;90.75
70254;BME280;57649;42.968;1.608;2023-02-21T07:31:44;97418.31;;;5.33;91.13
70254;BME280;57649;42.968;1.608;2023-02-21T07:34:10;97416.28;;;5.46;90.98
70254;BME280;57649;42.968;1.608;2023-02-21T07:36:37;97416.16;;;5.57;90.31
70254;BME280;57649;42.968;1.608;2023-02-21T07:39:03;97426.84;;;5.87;89.16
70254;BME280;57649;42.968;1.608;2023-02-21T07:41:28;97419.63;;;6.08;87.15
70254;BME280;57649;42.968;1.608;2023-02-21T07:43:54;97425.34;;;6.13;87.05
70254;BME280;57649;42.968;1.608;2023-02-21T07:46:19;97426.91;;;6.06;87.17
70254;BME280;57649;42.968;1.608;2023-02-21T07:48:45;97429.63;;;5.75;88.55
70254;BME280;57649;42.968;1.608;2023-02-21T07:51:11;97428.06;;;5.73;88.83
70254;BME280;57649;42.968;1.608;2023-02-21T07:53:36;97422.88;;;5.62;89.08
70254;BME280;57649;42.968;1.608;2023-02-21T07:56:03;97419.38;;;5.51;91.67
70254;BME280;57649;42.968;1.608;2023-02-21T07:58:29;97423.63;;;5.33;92.36
70254;BME280;57649;42.968;1.608;2023-02-21T08:00:54;97429.78;;;5.33;92.06
70254;BME280;57649;42.968;1.608;2023-02-21T08:03:20;97435.09;;;5.33;91.99
70254;BME280;57649;42.968;1.608;2023-02-21T08:05:46;97426.72;;;5.38;92.22
70254;BME280;57649;42.968;1.608;2023-02-21T08:08:14;97432.47;;;5.43;92.41
70254;BME280;57649;42.968;1.608;2023-02-21T08:10:39;97427.75;;;5.56;91.98
70254;BME280;57649;42.968;1.608;2023-02-21T08:13:05;97422.34;;;5.77;90.96
70254;BME280;57649;42.968;1.608;2023-02-21T08:15:30;97425.31;;;5.94;90.71
70254;BME280;57649;42.968;1.608;2023-02-21T08:17:55;97430.09;;;6.10;89.94
70254;BME280;57649;42.968;1.608;2023-02-21T08:20:21;97426.88;;;6.16;89.81
70254;BME280;57649;42.968;1.608;2023-02-21T08:22:46;97420.88;;;6.14;90.08
70254;BME280;57649;42.968;1.608;2023-02-21T08:25:14;97422.66;;;6.43;89.09
70254;BME280;57649;42.968;1.608;2023-02-21T08:27:40;97427.00;;;6.63;88.45
70254;BME280;57649;42.968;1.608;2023-02-21T08:30:08;97420.41;;;6.67;88.21
70254;BME280;57649;42.968;1.608;2023-02-21T08:32:34;97419.50;;;6.86;87.62
70254;BME280;57649;42.968;1.608;2023-02-21T08:35:00;97427.53;;;6.77;88.84
70254;BME280;57649;42.968;1.608;2023-02-21T08:37:28;97422.16;;;6.96;88.47
70254;BME280;57649;42.968;1.608;2023-02-21T08:39:57;97424.44;;;7.19;86.32
70254;BME280;57649;42.968;1.608;2023-02-21T08:42:23;97419.88;;;7.39;84.85
70254;BME280;57649;42.968;1.608;2023-02-21T08:44:49;97426.91;;;7.58;83.21
70254;BME280;57649;42.968;1.608;2023-02-21T08:47:15;97424.69;;;7.81;83.60
70254;BME280;57649;42.968;1.608;2023-02-21T08:49:45;97429.44;;;8.05;82.99
70254;BME280;57649;42.968;1.608;2023-02-21T08:52:12;97424.41;;;8.20;81.22
70254;BME280;57649;42.968;1.608;2023-02-21T08:54:39;97435.31;;;8.26;81.41
70254;BME280;57649;42.968;1.608;2023-02-21T08:57:04;97422.28;;;8.23;82.02
70254;BME280;57649;42.968;1.608;2023-02-21T08:59:30;97421.81;;;8.28;82.19
70254;BME280;57649;42.968;1.608;2023-02-21T09:01:58;97418.38;;;8.36;82.25
70254;BME280;57649;42.968;1.608;2023-02-21T09:04:24;97420.28;;;8.25;81.97
70254;BME280;57649;42.968;1.608;2023-02-21T09:06:51;97422.25;;;8.41;81.26
70254;BME280;57649;42.968;1.608;2023-02-21T09:09:16;97420.22;;;8.53;81.27
70254;BME280;57649;42.968;1.608;2023-02-21T09:11:42;97421.75;;;8.56;80.57
70254;BME280;57649;42.968;1.608;2023-02-21T09:14:11;97419.81;;;8.66;79.53
70254;BME280;57649;42.968;1.608;2023-02-21T09:16:37;97425.25;;;8.82;78.78
70254;BME280;57649;42.968;1.608;2023-02-21T09:19:03;97425.19;;;8.92;77.94
70254;BME280;57649;42.968;1.608;2023-02-21T09:21:31;97433.88;;;8.94;77.43
70254;BME280;57649;42.968;1.608;2023-02-21T09:23:57;97430.19;;;8.95;77.98
70254;BME280;57649;42.968;1.608;2023-02-21T09:26:24;97433.28;;;9.09;76.28
70254;BME280;57649;42.968;1.608;2023-02-21T09:28:51;97438.56;;;9.00;77.14
70254;BME280;57649;42.968;1.608;2023-02-21T09:31:18;97443.63;;;9.12;77.74
70254;BME280;57649;42.968;1.608;2023-02-21T09:33:44;97435.97;;;9.09;78.82
70254;BME280;57649;42.968;1.608;2023-02-21T09:36:10;97448.00;;;9.13;79.87
70254;BME280;57649;42.968;1.608;2023-02-21T09:38:36;97452.03;;;9.17;80.25
70254;BME280;57649;42.968;1.608;2023-02-21T09:41:04;97452.38;;;9.22;80.11
70254;BME280;57649;42.968;1.608;2023-02-21T09:43:33;97452.09;;;9.25;80.73
70254;BME280;57649;42.968;1.608;2023-02-21T09:46:06;97455.31;;;9.37;79.66
70254;BME280;57649;42.968;1.608;2023-02-21T09:48:35;97459.25;;;9.59;79.45
70254;BME280;57649;42.968;1.608;2023-02-21T09:51:03;97468.50;;;9.73;77.96
70254;BME280;57649;42.968;1.608;2023-02-21T09:53:32;97466.16;;;9.70;77.98
70254;BME280;57649;42.968;1.608;2023-02-21T09:58:41;97463.19;;;9.81;78.32
70254;BME280;57649;42.968;1.608;2023-02-21T10:06:47;97469.25;;;9.91;77.80
70254;BME280;57649;42.968;1.608;2023-02-21T10:09:30;97466.44;;;10.09;77.21
70254;BME280;57649;42.968;1.608;2023-02-21T10:17:26;97468.88;;;10.45;75.29
70254;BME280;57649;42.968;1.608;2023-02-21T10:19:59;97465.38;;;10.45;74.75
70254;BME280;57649;42.968;1.608;2023-02-21T10:22:32;97462.69;;;10.61;73.84
70254;BME280;57649;42.968;1.608;2023-02-21T10:25:01;97461.34;;;10.65;73.58
70254;BME280;57649;42.968;1.608;2023-02-21T10:27:32;97463.34;;;10.71;73.98
70254;BME280;57649;42.968;1.608;2023-02-21T10:30:09;97460.88;;;10.70;73.06
70254;BME280;57649;42.968;1.608;2023-02-21T10:32:36;97461.38;;;10.90;72.32
70254;BME280;57649;42.968;1.608;2023-02-21T10:35:02;97451.97;;;11.10;71.54
70254;BME280;57649;42.968;1.608;2023-02-21T10:37:32;97453.63;;;11.11;70.89
70254;BME280;57649;42.968;1.608;2023-02-21T10:40:04;97444.22;;;11.24;70.56
70254;BME280;57649;42.968;1.608;2023-02-21T10:43:17;97436.47;;;11.45;69.75
70254;BME280;57649;42.968;1.608;2023-02-21T10:45:49;97436.06;;;11.56;69.50
70254;BME280;57649;42.968;1.608;2023-02-21T10:48:18;97445.75;;;11.66;69.07
70254;BME280;57649;42.968;1.608;2023-02-21T10:51:03;97444.53;;;11.77;69.23
70254;BME280;57649;42.968;1.608;2023-02-21T10:53:32;97439.66;;;11.80;68.76
70254;BME280;57649;42.968;1.608;2023-02-21T11:01:44;97430.66;;;12.36;67.77
70254;BME280;57649;42.968;1.608;2023-02-21T11:06:57;97411.72;;;12.52;66.40
70254;BME280;57649;42.968;1.608;2023-02-21T11:09:47;97400.19;;;12.66;66.04
70254;BME280;57649;42.968;1.608;2023-02-21T11:17:22;97404.84;;;12.73;65.99
70254;BME280;57649;42.968;1.608;2023-02-21T11:22:24;97398.97;;;13.07;65.62
70254;BME280;57649;42.968;1.608;2023-02-21T11:25:16;97393.13;;;13.03;65.11
70254;BME280;57649;42.968;1.608;2023-02-21T11:27:44;97398.69;;;13.02;66.03
70254;BME280;57649;42.968;1.608;2023-02-21T11:30:22;97390.06;;;12.92;66.41
70254;BME280;57649;42.968;1.608;2023-02-21T11:32:49;97385.72;;;13.05;66.01
70254;BME280;57649;42.968;1.608;2023-02-21T11:37:49;97384.44;;;13.31;65.57
70254;BME280;57649;42.968;1.608;2023-02-21T11:40:30;97379.06;;;13.31;65.31
70254;BME280;57649;42.968;1.608;2023-02-21T11:43:27;97366.38;;;13.40;65.31
70254;BME280;57649;42.968;1.608;2023-02-21T11:46:16;97357.81;;;13.51;64.73
70254;BME280;57649;42.968;1.608;2023-02-21T11:53:58;97348.66;;;13.45;64.84
70254;BME280;57649;42.968;1.608;2023-02-21T11:56:58;97346.63;;;13.33;65.31
70254;BME280;57649;42.968;1.608;2023-02-21T11:59:52;97341.16;;;13.41;64.68
70254;BME280;57649;42.968;1.608;2023-02-21T12:08:25;97325.84;;;13.41;65.20
70254;BME280;57649;42.968;1.608;2023-02-21T12:19:50;97311.59;;;13.62;64.91
70254;BME280;57649;42.968;1.608;2023-02-21T12:25:24;97311.38;;;13.79;63.97
70254;BME280;57649;42.968;1.608;2023-02-21T12:30:57;97307.47;;;14.03;62.48
70254;BME280;57649;42.968;1.608;2023-02-21T12:44:11;97269.13;;;14.72;59.97
70254;BME280;57649;42.968;1.608;2023-02-21T12:47:04;97266.28;;;14.87;59.95
70254;BME280;57649;42.968;1.608;2023-02-21T12:52:18;97246.03;;;14.98;59.24
70254;BME280;57649;42.968;1.608;2023-02-21T13:05:52;97227.16;;;15.46;58.30
70254;BME280;57649;42.968;1.608;2023-02-21T13:08:27;97227.16;;;15.46;58.88
70254;BME280;57649;42.968;1.608;2023-02-21T13:11:30;97215.50;;;15.46;58.39
70254;BME280;57649;42.968;1.608;2023-02-21T13:13:57;97216.78;;;15.56;59.17
70254;BME280;57649;42.968;1.608;2023-02-21T13:16:24;97217.22;;;15.53;58.37
70254;BME280;57649;42.968;1.608;2023-02-21T13:19:00;97223.00;;;15.50;58.80
70254;BME280;57649;42.968;1.608;2023-02-21T13:29:27;97224.91;;;15.63;58.90
70254;BME280;57649;42.968;1.608;2023-02-21T13:32:13;97217.63;;;15.64;59.12
70254;BME280;57649;42.968;1.608;2023-02-21T13:34:44;97214.53;;;15.67;58.80
70254;BME280;57649;42.968;1.608;2023-02-21T13:37:17;97199.84;;;15.76;58.22
70254;BME280;57649;42.968;1.608;2023-02-21T13:39:50;97196.94;;;15.77;57.80
70254;BME280;57649;42.968;1.608;2023-02-21T13:42:22;97203.78;;;15.80;57.72
70254;BME280;57649;42.968;1.608;2023-02-21T13:44:53;97200.28;;;15.86;56.87
70254;BME280;57649;42.968;1.608;2023-02-21T13:47:21;97209.38;;;15.78;56.43
70254;BME280;57649;42.968;1.608;2023-02-21T13:58:22;97200.69;;;15.83;56.88
70254;BME280;57649;42.968;1.608;2023-02-21T14:08:39;97196.34;;;15.95;57.30
70254;BME280;57649;42.968;1.608;2023-02-21T14:13:34;97200.69;;;15.96;57.46
70254;BME280;57649;42.968;1.608;2023-02-21T14:19:00;97194.41;;;15.63;58.52
70254;BME280;57649;42.968;1.608;2023-02-21T14:21:38;97190.25;;;15.67;58.90
70254;BME280;57649;42.968;1.608;2023-02-21T14:34:39;97187.34;;;15.68;62.14
70254;BME280;57649;42.968;1.608;2023-02-21T14:37:41;97192.31;;;15.65;62.56
70254;BME280;57649;42.968;1.608;2023-02-21T14:45:55;97198.94;;;15.49;63.50
70254;BME280;57649;42.968;1.608;2023-02-21T14:48:40;97190.63;;;15.44;64.17
70254;BME280;57649;42.968;1.608;2023-02-21T14:57:46;97191.41;;;15.31;65.30
70254;BME280;57649;42.968;1.608;2023-02-21T15:03:28;97197.19;;;15.21;65.60
70254;BME280;57649;42.968;1.608;2023-02-21T15:06:08;97195.09;;;15.16;66.26
70254;BME280;57649;42.968;1.608;2023-02-21T15:08:47;97202.13;;;15.11;66.11
70254;BME280;57649;42.968;1.608;2023-02-21T15:11:29;97194.28;;;15.09;65.84
70254;BME280;57649;42.968;1.608;2023-02-21T15:14:17;97201.94;;;15.06;66.17
70254;BME280;57649;42.968;1.608;2023-02-21T15:16:53;97202.56;;;15.08;66.59
70254;BME280;57649;42.968;1.608;2023-02-21T15:19:33;97200.91;;;15.13;66.46
70254;BME280;57649;42.968;1.608;2023-02-21T15:27:51;97212.88;;;14.97;67.48
70254;BME280;57649;42.968;1.608;2023-02-21T15:30:20;97201.47;;;14.95;67.77
70254;BME280;57649;42.968;1.608;2023-02-21T15:33:17;97207.69;;;14.96;67.55
70254;BME280;57649;42.968;1.608;2023-02-21T15:35:53;97201.38;;;14.75;67.63
70254;BME280;57649;42.968;1.608;2023-02-21T15:38:25;97206.38;;;14.78;67.96
70254;BME280;57649;42.968;1.608;2023-02-21T15:40:58;97191.22;;;14.77;67.70
70254;BME280;57649;42.968;1.608;2023-02-21T15:43:50;97200.69;;;14.67;68.44
70254;BME280;57649;42.968;1.608;2023-02-21T15:46:21;97197.75;;;14.61;68.97
70254;BME280;57649;42.968;1.608;2023-02-21T15:48:49;97192.41;;;14.68;69.22
70254;BME280;57649;42.968;1.608;2023-02-21T15:51:16;97204.75;;;14.56;69.26
70254;BME280;57649;42.968;1.608;2023-02-21T15:53:42;97210.72;;;14.51;69.16
70254;BME280;57649;42.968;1.608;2023-02-21T15:56:17;97209.84;;;14.44;69.57
70254;BME280;57649;42.968;1.608;2023-02-21T15:59:10;97205.91;;;14.40;69.53
70254;BME280;57649;42.968;1.608;2023-02-21T16:01:36;97211.69;;;14.37;70.04
70254;BME280;57649;42.968;1.608;2023-02-21T16:04:19;97199.97;;;14.23;70.97
70254;BME280;57649;42.968;1.608;2023-02-21T16:06:53;97204.09;;;14.19;71.05
70254;BME280;57649;42.968;1.608;2023-02-21T16:09:23;97207.16;;;14.16;71.43
70254;BME280;57649;42.968;1.608;2023-02-21T16:14:43;97198.53;;;13.99;72.72
70254;BME280;57649;42.968;1.608;2023-02-21T16:19:43;97211.38;;;13.97;72.57
70254;BME280;57649;42.968;1.608;2023-02-21T16:22:29;97212.47;;;13.81;73.47
70254;BME280;57649;42.968;1.608;2023-02-21T16:27:36;97211.78;;;13.72;74.53
70254;BME280;57649;42.968;1.608;2023-02-21T16:30:04;97215.63;;;13.63;74.34
70254;BME280;57649;42.968;1.608;2023-02-21T16:32:30;97220.28;;;13.54;74.77
70254;BME280;57649;42.968;1.608;2023-02-21T16:34:55;97227.91;;;13.51;75.49
70254;BME280;57649;42.968;1.608;2023-02-21T16:37:23;97225.31;;;13.42;75.77